createdAt,value
2018-11-12T00:03:12.132Z,11.12
2018-11-12T00:08:15.303Z,10.80
2018-11-12T00:13:18.483Z,11.90
2018-11-12T00:18:21.668Z,11.97
2018-11-12T00:23:24.976Z,11.10
2018-11-12T00:28:28.135Z,9.95
2018-11-12T00:33:31.384Z,10.03
2018-11-12T00:38:34.571Z,9.35
2018-11-12T00:43:37.752Z,10.13
2018-11-12T00:48:41.140Z,9.27
2018-11-12T00:53:44.300Z,8.73
2018-11-12T00:58:47.512Z,7.85
2018-11-12T01:03:50.720Z,6.60
2018-11-12T01:08:53.923Z,6.07
2018-11-12T01:13:57.159Z,5.72
2018-11-12T01:19:00.324Z,6.00
2018-11-12T01:24:03.488Z,5.53
2018-11-12T01:29:06.691Z,4.87
2018-11-12T01:34:09.858Z,5.00
2018-11-12T01:39:13.188Z,4.73
2018-11-12T01:44:16.376Z,4.30
2018-11-12T01:49:19.544Z,5.00
2018-11-12T01:54:22.704Z,4.95
2018-11-12T01:59:25.872Z,4.62
2018-11-12T02:04:29.068Z,5.03
2018-11-12T02:09:32.365Z,4.97
2018-11-12T02:14:35.584Z,5.30
2018-11-12T02:19:38.751Z,5.55
2018-11-12T02:24:41.940Z,5.67
2018-11-12T02:29:45.126Z,6.20
2018-11-12T02:34:48.428Z,6.20
2018-11-12T02:39:51.621Z,6.72
2018-11-12T02:44:54.832Z,7.87
2018-11-12T02:49:58.003Z,7.60
2018-11-12T02:55:01.215Z,9.10
2018-11-12T03:00:07.575Z,7.53
2018-11-12T03:05:11.338Z,8.43
2018-11-12T03:10:19.679Z,11.20
2018-11-12T03:15:22.979Z,10.30
2018-11-12T03:20:26.200Z,9.40
2018-11-12T03:25:29.435Z,8.78
2018-11-12T03:30:32.673Z,9.13
2018-11-12T03:35:35.871Z,9.30
2018-11-12T03:40:39.111Z,10.10
2018-11-12T03:45:42.379Z,11.00
2018-11-12T03:50:45.591Z,11.10
2018-11-12T03:55:48.818Z,11.63
2018-11-12T04:00:52.199Z,12.15
2018-11-12T04:05:55.445Z,13.88
2018-11-12T04:10:58.641Z,11.80
2018-11-12T04:16:01.873Z,10.68
2018-11-12T04:21:05.622Z,10.95
2018-11-12T04:26:08.834Z,10.75
2018-11-12T04:31:12.179Z,10.50
2018-11-12T04:36:15.382Z,10.95
2018-11-12T04:41:18.610Z,12.57
2018-11-12T04:46:21.839Z,10.90
2018-11-12T04:51:25.052Z,10.70
2018-11-12T04:56:28.251Z,9.57
2018-11-12T05:01:31.464Z,14.00
2018-11-12T05:06:34.687Z,11.75
2018-11-12T05:11:37.867Z,11.15
2018-11-12T05:16:41.126Z,13.13
2018-11-12T05:21:44.275Z,10.20
2018-11-12T05:26:47.455Z,12.20
2018-11-12T05:31:50.649Z,11.80
2018-11-12T05:36:53.867Z,10.38
2018-11-12T05:41:57.110Z,11.45
2018-11-12T05:47:00.303Z,12.20
2018-11-12T05:52:03.482Z,15.83
2018-11-12T05:57:06.759Z,13.43
2018-11-12T06:02:09.943Z,15.00
2018-11-12T06:07:13.187Z,12.10
2018-11-12T06:12:16.402Z,11.30
2018-11-12T06:17:19.638Z,12.18
2018-11-12T06:22:22.842Z,11.80
2018-11-12T06:27:26.059Z,13.87
2018-11-12T06:32:29.280Z,12.53
2018-11-12T06:37:32.490Z,11.75
2018-11-12T06:42:36.044Z,11.53
2018-11-12T06:47:39.247Z,12.07
2018-11-12T06:52:46.470Z,14.20
2018-11-12T06:57:49.943Z,13.70
2018-11-12T07:02:53.219Z,13.20
2018-11-12T07:07:56.438Z,13.00
2018-11-12T07:13:00.478Z,12.13
2018-11-12T07:18:03.671Z,12.70
2018-11-12T07:23:06.868Z,13.83
2018-11-12T07:28:10.083Z,13.27
2018-11-12T07:33:13.288Z,13.30
2018-11-12T07:38:16.572Z,15.63
2018-11-12T07:43:19.758Z,12.53
2018-11-12T07:48:22.987Z,13.10
2018-11-12T07:53:26.187Z,12.65
2018-11-12T07:58:29.375Z,12.15
2018-11-12T08:03:32.595Z,11.60
2018-11-12T08:08:35.797Z,11.60
2018-11-12T08:13:39.035Z,11.57
2018-11-12T08:18:42.261Z,11.30
2018-11-12T08:23:45.403Z,10.38
2018-11-12T08:28:48.599Z,9.28
2018-11-12T08:33:51.974Z,11.17
2018-11-12T08:38:55.230Z,9.50
2018-11-12T08:43:58.427Z,11.28
2018-11-12T08:49:01.703Z,10.35
2018-11-12T08:54:05.394Z,10.80
2018-11-12T08:59:08.887Z,7.83
2018-11-12T09:04:12.224Z,8.60
2018-11-12T09:09:15.426Z,10.97
2018-11-12T09:14:18.614Z,8.20
2018-11-12T09:19:21.806Z,8.75
2018-11-12T09:24:25.246Z,11.00
2018-11-12T09:29:28.672Z,10.08
2018-11-12T09:34:31.827Z,17.05
2018-11-12T09:39:35.023Z,9.70
2018-11-12T09:44:38.275Z,10.13
2018-11-12T09:49:41.498Z,7.92
2018-11-12T09:54:44.933Z,7.85
2018-11-12T09:59:47.887Z,8.48
2018-11-12T10:04:52.625Z,10.15
2018-11-12T10:09:56.339Z,9.83
2018-11-12T10:14:59.412Z,12.63
2018-11-12T10:20:00.838Z,11.35
2018-11-12T10:25:04.039Z,8.93
2018-11-12T10:30:08.035Z,11.78
2018-11-12T10:35:11.572Z,10.87
2018-11-12T10:40:17.003Z,10.90
2018-11-12T10:45:20.346Z,9.65
2018-11-12T10:50:24.022Z,10.88
2018-11-12T10:55:27.438Z,10.30
2018-11-12T11:00:37.041Z,11.22
2018-11-12T11:05:41.490Z,13.50
2018-11-12T11:10:44.670Z,13.50
2018-11-12T11:15:47.888Z,12.58
2018-11-12T11:20:51.091Z,11.53
2018-11-12T11:25:54.294Z,11.35
2018-11-12T11:30:57.549Z,12.07
2018-11-12T11:36:00.803Z,9.87
2018-11-12T11:41:04.019Z,9.43
2018-11-12T11:46:07.308Z,9.20
2018-11-12T11:51:10.530Z,9.33
2018-11-12T11:56:13.764Z,10.30
2018-11-12T12:01:16.963Z,9.10
2018-11-12T12:06:20.167Z,7.75
2018-11-12T12:11:23.357Z,7.72
2018-11-12T12:16:26.535Z,8.97
2018-11-12T12:21:29.743Z,11.15
2018-11-12T12:26:32.947Z,11.00
2018-11-12T12:31:36.167Z,11.85
2018-11-12T12:36:39.554Z,11.50
2018-11-12T12:41:42.678Z,14.53
2018-11-12T12:46:45.858Z,13.48
2018-11-12T12:51:49.064Z,15.53
2018-11-12T12:56:52.294Z,14.05
2018-11-12T13:01:55.604Z,15.47
2018-11-12T13:06:58.718Z,15.35
2018-11-12T13:12:01.907Z,16.12
2018-11-12T13:17:05.302Z,16.57
2018-11-12T13:22:08.503Z,17.37
2018-11-12T13:27:11.675Z,15.75
2018-11-12T13:32:14.881Z,15.38
2018-11-12T13:37:18.096Z,13.53
2018-11-12T13:42:21.312Z,11.13
2018-11-12T13:47:24.515Z,10.80
2018-11-12T13:52:27.687Z,8.65
2018-11-12T13:57:30.919Z,8.03
2018-11-12T14:02:34.071Z,7.50
2018-11-12T14:07:37.310Z,7.13
2018-11-12T14:12:41.042Z,7.55
2018-11-12T14:17:44.547Z,7.60
2018-11-12T14:22:47.787Z,8.55
2018-11-12T14:27:52.312Z,9.00
2018-11-12T14:32:55.383Z,10.08
2018-11-12T14:37:58.598Z,11.25
2018-11-12T14:43:01.809Z,15.17
2018-11-12T14:48:05.061Z,11.30
2018-11-12T14:53:08.296Z,10.77
2018-11-12T14:58:11.513Z,9.98
2018-11-12T15:03:14.723Z,9.75
2018-11-12T15:08:17.915Z,9.37
2018-11-12T15:13:21.131Z,9.60
2018-11-12T15:18:24.421Z,9.43
2018-11-12T15:23:27.594Z,10.30
2018-11-12T15:28:30.788Z,9.95
2018-11-12T15:33:34.959Z,10.60
2018-11-12T15:38:38.158Z,12.05
2018-11-12T15:43:41.395Z,10.00
2018-11-12T15:48:44.640Z,11.05
2018-11-12T15:53:47.835Z,11.05
2018-11-12T15:58:51.076Z,11.13
2018-11-12T16:03:54.339Z,11.33
2018-11-12T16:08:57.526Z,11.43
2018-11-12T16:14:00.737Z,11.17
2018-11-12T16:19:04.057Z,11.88
2018-11-12T16:24:07.581Z,12.43
2018-11-12T16:29:10.799Z,12.47
2018-11-12T16:34:14.218Z,12.25
2018-11-12T16:39:17.432Z,13.60
2018-11-12T16:44:20.655Z,15.50
2018-11-12T16:49:23.987Z,13.00
2018-11-12T16:54:27.219Z,19.15
2018-11-12T16:59:30.432Z,26.33
2018-11-12T17:04:33.683Z,22.07
2018-11-12T17:09:36.909Z,17.30
2018-11-12T17:14:40.243Z,17.45
2018-11-12T17:19:43.443Z,17.20
2018-11-12T17:24:46.679Z,20.35
2018-11-12T17:29:49.850Z,17.73
2018-11-12T17:34:53.343Z,19.83
2018-11-12T17:39:56.555Z,19.43
2018-11-12T17:44:59.767Z,18.30
2018-11-12T17:50:02.982Z,21.45
2018-11-12T17:55:06.168Z,19.50
2018-11-12T18:00:17.789Z,20.95
2018-11-12T18:05:21.007Z,21.50
2018-11-12T18:10:24.241Z,22.85
2018-11-12T18:15:27.435Z,29.17
2018-11-12T18:20:30.660Z,25.17
2018-11-12T18:25:33.859Z,22.40
2018-11-12T18:30:37.482Z,21.83
2018-11-12T18:35:40.608Z,32.13
2018-11-12T18:40:43.898Z,75.83
2018-11-12T18:45:47.124Z,25.97
2018-11-12T18:50:50.340Z,28.40
2018-11-12T18:55:53.643Z,24.43
2018-11-12T19:00:56.872Z,25.55
2018-11-12T19:06:00.067Z,26.52
2018-11-12T19:11:03.521Z,28.10
2018-11-12T19:16:07.062Z,29.13
2018-11-12T19:21:10.294Z,39.63
2018-11-12T19:26:13.437Z,29.65
2018-11-12T19:31:16.707Z,72.08
2018-11-12T19:36:19.879Z,58.83
2018-11-12T19:41:23.070Z,40.50
2018-11-12T19:46:26.282Z,40.95
2018-11-12T19:51:29.532Z,35.43
2018-11-12T19:56:32.742Z,34.10
2018-11-12T20:01:35.934Z,73.50
2018-11-12T20:06:39.202Z,36.85
2018-11-12T20:11:42.474Z,32.30
2018-11-12T20:16:45.650Z,27.90
2018-11-12T20:21:48.846Z,27.50
2018-11-12T20:26:52.063Z,28.05
2018-11-12T20:31:55.321Z,28.38
2018-11-12T20:36:58.476Z,26.17
2018-11-12T20:42:01.686Z,28.67
2018-11-12T20:47:05.220Z,30.25
2018-11-12T20:52:08.486Z,32.60
2018-11-12T20:57:11.676Z,26.70
2018-11-12T21:02:14.993Z,35.50
2018-11-12T21:07:18.206Z,32.85
2018-11-12T21:12:21.469Z,33.38
2018-11-12T21:17:24.671Z,29.75
2018-11-12T21:22:27.877Z,28.10
2018-11-12T21:27:31.115Z,28.57
2018-11-12T21:32:34.326Z,29.23
2018-11-12T21:37:37.556Z,29.43
2018-11-12T21:42:40.758Z,30.85
2018-11-12T21:47:44.256Z,29.50
2018-11-12T21:52:47.491Z,28.77
2018-11-12T21:57:50.712Z,35.25
2018-11-12T22:02:55.363Z,32.93
2018-11-12T22:07:58.742Z,31.55
2018-11-12T22:13:01.947Z,32.42
2018-11-12T22:18:05.845Z,32.47
2018-11-12T22:23:09.027Z,31.30
2018-11-12T22:28:12.321Z,32.03
2018-11-12T22:33:15.431Z,33.23
2018-11-12T22:38:18.631Z,32.15
2018-11-12T22:43:21.811Z,32.33
2018-11-12T22:48:24.986Z,33.47
2018-11-12T22:53:28.274Z,34.60
2018-11-12T22:58:31.483Z,35.60
2018-11-12T23:03:34.682Z,34.23
2018-11-12T23:08:37.915Z,34.40
2018-11-12T23:13:41.142Z,38.17
2018-11-12T23:18:44.481Z,41.08
2018-11-12T23:23:47.723Z,44.58
2018-11-12T23:28:50.988Z,42.85
2018-11-12T23:33:54.203Z,43.20
2018-11-12T23:38:57.406Z,39.87
2018-11-12T23:44:00.628Z,44.42
2018-11-12T23:49:03.972Z,41.10
2018-11-12T23:54:07.178Z,39.70
2018-11-12T23:59:10.501Z,43.67
